Terminal Aerodrome Forecast
Issued by NWS

Home | Current Version | Previous Version | Text Only | Print | Product List | Glossary On
Versions: 1 2 3 4 5 6 7 8 9 10 11 12 13 14 15
000
FTUS43 KICT 061846 AAA
TAFRSL
TAF AMD
KRSL 061846Z 0619/0718 35016G24KT P6SM VCTS BKN035CB OVC050
      TEMPO 0619/0623 6SM -TSRA BKN012CB
     FM070000 01014G22KT P6SM BKN070 OVC120
     FM070900 07011KT P6SM SCT030 BKN120=

USA.gov is the U.S. government's official web portal to all federal, state and local government web resources and services.